createdAt,value
2018-01-26T00:01:12.695Z,92.00
2018-01-26T00:03:39.724Z,92.00
2018-01-26T00:06:07.413Z,92.00
2018-01-26T00:08:34.451Z,91.90
2018-01-26T00:11:01.502Z,92.00
2018-01-26T00:13:28.479Z,91.90
2018-01-26T00:15:55.522Z,91.90
2018-01-26T00:18:22.588Z,91.90
2018-01-26T00:20:49.642Z,92.00
2018-01-26T00:23:16.623Z,91.90
2018-01-26T00:25:43.595Z,91.90
2018-01-26T00:28:10.570Z,91.90
2018-01-26T00:30:38.302Z,92.00
2018-01-26T00:33:06.207Z,91.90
2018-01-26T00:35:33.243Z,92.00
2018-01-26T00:38:00.297Z,92.00
2018-01-26T00:40:28.070Z,92.00
2018-01-26T00:42:55.051Z,92.00
2018-01-26T00:45:22.023Z,92.00
2018-01-26T00:47:48.990Z,91.90
2018-01-26T00:50:15.971Z,91.90
2018-01-26T00:52:43.706Z,91.90
2018-01-26T00:55:10.743Z,91.80
2018-01-26T00:57:37.715Z,91.90
2018-01-26T01:00:04.772Z,91.90
2018-01-26T01:02:31.956Z,92.20
2018-01-26T01:04:58.983Z,91.90
2018-01-26T01:07:25.955Z,91.90
2018-01-26T01:09:52.936Z,91.90
2018-01-26T01:12:20.671Z,92.00
2018-01-26T01:14:47.650Z,92.00
2018-01-26T01:17:14.623Z,91.90
2018-01-26T01:19:41.598Z,91.90
2018-01-26T01:22:09.435Z,91.90
2018-01-26T01:24:36.410Z,91.90
2018-01-26T01:27:03.374Z,91.90
2018-01-26T01:29:30.403Z,91.90
2018-01-26T01:31:57.370Z,91.90
2018-01-26T01:34:24.427Z,91.90
2018-01-26T01:36:51.391Z,91.90
2018-01-26T01:39:18.376Z,91.80
2018-01-26T01:41:45.404Z,91.80
2018-01-26T01:44:12.371Z,91.90
2018-01-26T01:46:39.342Z,91.90
2018-01-26T01:49:12.221Z,91.90
2018-01-26T01:51:39.194Z,91.90
2018-01-26T01:54:06.239Z,91.90
2018-01-26T01:56:33.214Z,91.90
2018-01-26T01:59:00.246Z,91.90
2018-01-26T02:01:27.308Z,91.90
2018-01-26T02:03:54.371Z,92.00
2018-01-26T02:06:21.432Z,91.90
2018-01-26T02:08:48.486Z,91.90
2018-01-26T02:11:15.548Z,91.90
2018-01-26T02:13:42.514Z,91.90
2018-01-26T02:16:09.491Z,91.90
2018-01-26T02:18:36.527Z,91.90
2018-01-26T02:21:03.595Z,92.00
2018-01-26T02:23:30.567Z,91.90
2018-01-26T02:25:57.551Z,91.90
2018-01-26T02:28:25.286Z,91.90
2018-01-26T02:30:52.289Z,91.90
2018-01-26T02:33:20.023Z,91.90
2018-01-26T02:35:47.007Z,91.90
2018-01-26T02:38:20.907Z,91.90
2018-01-26T02:40:47.950Z,91.90
2018-01-26T02:43:14.931Z,91.90
2018-01-26T02:45:41.903Z,92.20
2018-01-26T02:48:08.931Z,91.90
2018-01-26T02:50:35.991Z,91.80
2018-01-26T02:53:03.056Z,91.80
2018-01-26T02:55:30.036Z,91.90
2018-01-26T02:57:57.015Z,91.80
2018-01-26T03:00:24.851Z,91.80
2018-01-26T03:02:51.906Z,91.80
2018-01-26T03:05:18.878Z,91.70
2018-01-26T03:07:45.855Z,91.80
2018-01-26T03:10:12.822Z,91.70
2018-01-26T03:12:39.815Z,91.80
2018-01-26T03:15:06.790Z,91.70
2018-01-26T03:17:33.855Z,91.60
2018-01-26T03:20:00.830Z,91.50
2018-01-26T03:22:27.803Z,91.60
2018-01-26T03:24:54.778Z,91.60
2018-01-26T03:27:22.519Z,91.60
2018-01-26T03:29:49.572Z,91.60
2018-01-26T03:32:16.543Z,91.60
2018-01-26T03:34:43.519Z,91.60
2018-01-26T03:37:10.490Z,91.50
2018-01-26T03:39:38.231Z,91.50
2018-01-26T03:42:05.202Z,91.50
2018-01-26T03:44:32.184Z,91.50
2018-01-26T03:47:00.011Z,91.40
2018-01-26T03:49:26.988Z,91.40
2018-01-26T03:51:54.031Z,91.40
2018-01-26T03:54:21.011Z,91.30
2018-01-26T03:56:47.989Z,91.30
2018-01-26T03:59:14.966Z,91.00
2018-01-26T04:01:42.700Z,91.00
2018-01-26T04:04:09.678Z,91.00
2018-01-26T04:06:36.704Z,90.90
2018-01-26T04:09:03.683Z,90.90
2018-01-26T04:11:30.658Z,91.00
2018-01-26T04:13:57.675Z,91.10
2018-01-26T04:16:24.659Z,91.10
2018-01-26T04:18:51.672Z,91.20
2018-01-26T04:21:19.466Z,91.10
2018-01-26T04:23:46.438Z,91.10
2018-01-26T04:26:13.491Z,91.00
2018-01-26T04:28:40.459Z,91.10
2018-01-26T04:31:07.449Z,91.10
2018-01-26T04:33:34.482Z,91.10
2018-01-26T04:36:01.463Z,91.10
2018-01-26T04:38:28.482Z,91.10
2018-01-26T04:40:55.551Z,91.00
2018-01-26T04:43:22.528Z,91.10
2018-01-26T04:45:49.503Z,91.10
2018-01-26T04:48:16.518Z,91.10
2018-01-26T04:50:43.620Z,91.20
2018-01-26T04:53:10.590Z,91.10
2018-01-26T04:55:38.340Z,91.20
2018-01-26T04:58:05.311Z,91.10
2018-01-26T05:00:32.283Z,91.10
2018-01-26T05:03:00.028Z,91.10
2018-01-26T05:05:27.004Z,91.00
2018-01-26T05:07:53.984Z,91.10
2018-01-26T05:10:21.731Z,91.00
2018-01-26T05:12:48.698Z,91.00
2018-01-26T05:15:15.719Z,91.10
2018-01-26T05:17:42.770Z,91.20
2018-01-26T05:20:09.746Z,91.10
2018-01-26T05:22:36.791Z,91.20
2018-01-26T05:25:03.762Z,91.10
2018-01-26T05:27:30.806Z,91.10
2018-01-26T05:29:57.779Z,91.10
2018-01-26T05:32:24.833Z,91.10
2018-01-26T05:34:51.798Z,91.10
2018-01-26T05:37:18.841Z,91.10
2018-01-26T05:39:45.823Z,91.10
2018-01-26T05:42:12.866Z,91.10
2018-01-26T05:44:39.931Z,91.20
2018-01-26T05:47:06.982Z,91.20
2018-01-26T05:49:34.051Z,91.20
2018-01-26T05:52:01.038Z,91.20
2018-01-26T05:54:28.008Z,91.20
2018-01-26T05:56:55.066Z,91.20
2018-01-26T05:59:22.006Z,91.30
2018-01-26T06:01:48.970Z,91.20
2018-01-26T06:04:15.998Z,91.30
2018-01-26T06:06:42.971Z,91.20
2018-01-26T06:09:10.015Z,91.30
2018-01-26T06:11:36.986Z,91.30
2018-01-26T06:14:04.039Z,91.30
2018-01-26T06:16:31.095Z,91.30
2018-01-26T06:18:58.079Z,91.20
2018-01-26T06:21:25.107Z,91.20
2018-01-26T06:23:52.093Z,91.20
2018-01-26T06:26:19.063Z,91.20
2018-01-26T06:28:47.547Z,91.20
2018-01-26T06:31:14.522Z,91.20
2018-01-26T06:33:41.539Z,91.20
2018-01-26T06:36:08.602Z,91.20
2018-01-26T06:38:35.662Z,91.20
2018-01-26T06:41:02.723Z,91.20
2018-01-26T06:43:29.696Z,91.10
2018-01-26T06:45:56.741Z,91.10
2018-01-26T06:48:23.706Z,91.20
2018-01-26T06:50:50.699Z,91.20
2018-01-26T06:53:17.711Z,91.20
2018-01-26T06:55:44.770Z,91.20
2018-01-26T06:58:11.835Z,91.20
2018-01-26T07:00:38.911Z,91.20
2018-01-26T07:03:05.960Z,91.20
2018-01-26T07:05:33.019Z,91.20
2018-01-26T07:08:00.079Z,91.20
2018-01-26T07:10:27.067Z,91.20
2018-01-26T07:12:54.030Z,91.20
2018-01-26T07:15:21.051Z,91.20
2018-01-26T07:17:48.110Z,91.10
2018-01-26T07:20:15.172Z,91.10
2018-01-26T07:22:42.142Z,91.00
2018-01-26T07:25:09.198Z,91.00
2018-01-26T07:27:36.163Z,91.00
2018-01-26T07:30:03.140Z,90.90
2018-01-26T07:32:30.115Z,90.80
2018-01-26T07:34:57.942Z,90.70
2018-01-26T07:37:25.003Z,90.70
2018-01-26T07:39:51.975Z,90.80
2018-01-26T07:42:19.020Z,90.80
2018-01-26T07:44:45.987Z,90.80
2018-01-26T07:47:12.963Z,90.80
2018-01-26T07:49:39.935Z,90.80
2018-01-26T07:52:06.962Z,90.80
2018-01-26T07:54:34.019Z,90.80
2018-01-26T07:57:01.000Z,90.90
2018-01-26T07:59:27.976Z,90.90
2018-01-26T08:01:54.987Z,90.90
2018-01-26T08:04:22.051Z,90.90
2018-01-26T08:06:49.023Z,90.90
2018-01-26T08:09:16.071Z,90.90
2018-01-26T08:11:43.130Z,91.00
2018-01-26T08:14:10.187Z,91.00
2018-01-26T08:16:37.243Z,91.00
2018-01-26T08:19:04.219Z,91.00
2018-01-26T08:21:31.193Z,91.10
2018-01-26T08:23:58.219Z,91.10
2018-01-26T08:26:25.195Z,91.10
2018-01-26T08:28:52.171Z,91.00
2018-01-26T08:31:19.198Z,91.00
2018-01-26T08:33:46.175Z,91.00
2018-01-26T08:36:13.217Z,91.00
2018-01-26T08:38:40.199Z,91.10
2018-01-26T08:41:07.179Z,91.00
2018-01-26T08:43:34.190Z,91.10
2018-01-26T08:46:01.371Z,91.50
2018-01-26T08:48:28.350Z,91.10
2018-01-26T08:50:55.315Z,91.10
2018-01-26T08:53:22.331Z,91.10
2018-01-26T08:55:49.315Z,91.50
2018-01-26T08:58:16.352Z,91.10
2018-01-26T09:00:43.332Z,90.80
2018-01-26T09:03:10.375Z,90.60
2018-01-26T09:05:37.355Z,90.70
2018-01-26T09:08:04.386Z,90.40
2018-01-26T09:10:31.358Z,90.20
2018-01-26T09:12:58.398Z,90.00
2018-01-26T09:15:25.462Z,90.00
2018-01-26T09:17:52.435Z,89.70
2018-01-26T09:20:19.483Z,89.20
2018-01-26T09:22:46.455Z,89.30
2018-01-26T09:25:13.434Z,89.70
2018-01-26T09:27:40.402Z,89.40
2018-01-26T09:30:07.384Z,89.20
2018-01-26T09:32:34.372Z,88.90
2018-01-26T09:35:01.444Z,89.10
2018-01-26T09:37:28.486Z,88.70
2018-01-26T09:39:55.470Z,88.70
2018-01-26T09:42:22.438Z,89.00
2018-01-26T09:44:49.467Z,88.70
2018-01-26T09:47:16.451Z,88.60
2018-01-26T09:49:43.421Z,88.50
2018-01-26T09:52:10.403Z,87.90
2018-01-26T09:54:38.146Z,87.40
2018-01-26T09:57:05.127Z,87.40
2018-01-26T09:59:32.863Z,87.40
2018-01-26T10:01:59.839Z,87.40
2018-01-26T10:04:26.874Z,86.90
2018-01-26T10:06:53.855Z,86.30
2018-01-26T10:09:20.891Z,86.00
2018-01-26T10:11:47.859Z,86.40
2018-01-26T10:14:14.875Z,86.20
2018-01-26T10:16:42.608Z,86.20
2018-01-26T10:19:09.638Z,85.50
2018-01-26T10:21:36.615Z,85.50
2018-01-26T10:24:03.663Z,85.00
2018-01-26T10:26:30.819Z,84.90
2018-01-26T10:28:57.890Z,85.20
2018-01-26T10:31:24.946Z,85.50
2018-01-26T10:33:52.004Z,86.00
2018-01-26T10:36:19.063Z,86.10
2018-01-26T10:38:46.127Z,85.70
2018-01-26T10:41:13.199Z,84.70
2018-01-26T10:43:40.179Z,84.20
2018-01-26T10:46:07.150Z,84.70
2018-01-26T10:48:34.987Z,85.30
2018-01-26T10:51:02.040Z,85.30
2018-01-26T10:53:29.007Z,85.10
2018-01-26T10:55:56.058Z,84.80
2018-01-26T10:58:23.120Z,84.70
2018-01-26T11:00:50.094Z,85.20
2018-01-26T11:03:17.140Z,84.70
2018-01-26T11:05:44.122Z,85.10
2018-01-26T11:08:11.091Z,84.70
2018-01-26T11:10:38.079Z,82.80
2018-01-26T11:13:05.561Z,82.60
2018-01-26T11:15:32.647Z,81.90
2018-01-26T11:17:59.623Z,80.70
2018-01-26T11:20:26.667Z,80.70
2018-01-26T11:22:53.655Z,79.20
2018-01-26T11:25:20.675Z,78.60
2018-01-26T11:27:47.660Z,78.10
2018-01-26T11:30:14.640Z,76.90
2018-01-26T11:32:41.651Z,76.90
2018-01-26T11:35:08.715Z,78.00
2018-01-26T11:37:35.704Z,77.30
2018-01-26T11:40:02.771Z,76.50
2018-01-26T11:42:29.755Z,76.60
2018-01-26T11:44:56.830Z,76.80
2018-01-26T11:47:24.556Z,76.70
2018-01-26T11:49:51.591Z,76.80
2018-01-26T11:52:18.643Z,77.70
2018-01-26T11:54:45.619Z,78.40
2018-01-26T11:57:12.603Z,76.70
2018-01-26T11:59:39.623Z,75.70
2018-01-26T12:02:06.686Z,76.60
2018-01-26T12:04:33.699Z,76.60
2018-01-26T12:07:01.652Z,79.50
2018-01-26T12:09:28.691Z,79.50
2018-01-26T12:11:55.666Z,79.50
2018-01-26T12:14:22.650Z,81.10
2018-01-26T12:16:50.391Z,79.80
2018-01-26T12:19:17.375Z,79.70
2018-01-26T12:21:44.342Z,81.60
2018-01-26T12:24:12.183Z,79.20
2018-01-26T12:26:39.155Z,79.10
2018-01-26T12:29:06.139Z,79.00
2018-01-26T12:31:33.884Z,78.00
2018-01-26T12:34:00.868Z,77.90
2018-01-26T12:36:28.611Z,77.60
2018-01-26T12:38:55.599Z,77.50
2018-01-26T12:41:23.430Z,79.50
2018-01-26T12:43:50.495Z,78.70
2018-01-26T12:46:17.471Z,78.50
2018-01-26T12:48:44.511Z,79.20
2018-01-26T12:51:11.483Z,79.50
2018-01-26T12:53:38.533Z,80.40
2018-01-26T12:56:05.597Z,80.20
2018-01-26T12:58:32.660Z,80.30
2018-01-26T13:00:59.715Z,82.10
2018-01-26T13:03:26.695Z,83.50
2018-01-26T13:05:53.667Z,84.30
2018-01-26T13:08:20.688Z,85.00
2018-01-26T13:10:47.750Z,86.70
2018-01-26T13:13:14.730Z,86.70
2018-01-26T13:15:41.835Z,87.20
2018-01-26T13:18:08.818Z,87.70
2018-01-26T13:20:35.805Z,88.40
2018-01-26T13:23:02.850Z,88.80
2018-01-26T13:25:29.830Z,89.60
2018-01-26T13:27:56.802Z,90.10
2018-01-26T13:30:23.782Z,90.30
2018-01-26T13:32:51.594Z,90.40
2018-01-26T13:35:18.613Z,90.40
2018-01-26T13:37:45.577Z,90.60
2018-01-26T13:40:13.391Z,90.30
2018-01-26T13:42:40.363Z,90.30
2018-01-26T13:45:07.338Z,90.40
2018-01-26T13:47:35.078Z,87.30
2018-01-26T13:50:02.102Z,87.30
2018-01-26T13:52:29.031Z,89.10
2018-01-26T13:54:56.059Z,89.20
2018-01-26T13:57:23.043Z,89.40
2018-01-26T13:59:50.006Z,89.40
2018-01-26T14:02:16.991Z,89.30
2018-01-26T14:04:44.722Z,89.60
2018-01-26T14:07:11.703Z,89.60
2018-01-26T14:09:38.675Z,89.40
2018-01-26T14:12:06.466Z,90.10
2018-01-26T14:14:33.387Z,90.00
2018-01-26T14:17:00.419Z,89.50
2018-01-26T14:19:27.387Z,89.20
2018-01-26T14:21:54.371Z,89.30
2018-01-26T14:24:21.395Z,89.30
2018-01-26T14:26:48.475Z,88.80
2018-01-26T14:29:15.447Z,88.30
2018-01-26T14:31:42.466Z,88.40
2018-01-26T14:34:09.438Z,88.70
2018-01-26T14:36:36.495Z,88.50
2018-01-26T14:39:03.465Z,89.00
2018-01-26T14:41:30.449Z,89.50
2018-01-26T14:43:57.422Z,89.70
2018-01-26T14:46:25.243Z,90.10
2018-01-26T14:48:52.211Z,90.00
2018-01-26T14:51:19.195Z,90.20
2018-01-26T14:53:46.226Z,90.30
2018-01-26T14:56:13.211Z,90.40
2018-01-26T14:58:40.187Z,90.60
2018-01-26T15:01:07.922Z,90.70
2018-01-26T15:03:34.907Z,90.60
2018-01-26T15:06:01.931Z,90.60
2018-01-26T15:08:29.003Z,90.60
2018-01-26T15:10:55.977Z,90.60
2018-01-26T15:13:23.008Z,90.60
2018-01-26T15:15:49.974Z,90.60
2018-01-26T15:18:17.031Z,90.70
2018-01-26T15:20:44.091Z,90.70
2018-01-26T15:23:11.067Z,90.90
2018-01-26T15:25:38.039Z,90.60
2018-01-26T15:28:05.064Z,90.40
2018-01-26T15:30:32.035Z,90.50
2018-01-26T15:32:59.082Z,90.70
2018-01-26T15:35:26.071Z,90.70
2018-01-26T15:37:53.098Z,90.60
2018-01-26T15:40:20.075Z,90.60
2018-01-26T15:42:47.051Z,90.60
2018-01-26T15:45:14.159Z,90.70
2018-01-26T15:47:41.933Z,90.80
2018-01-26T15:50:09.674Z,90.80
2018-01-26T15:52:36.623Z,90.70
2018-01-26T15:55:05.121Z,90.80
2018-01-26T15:57:32.127Z,91.10
2018-01-26T15:59:59.103Z,90.80
2018-01-26T16:02:26.159Z,90.80
2018-01-26T16:04:53.139Z,90.80
2018-01-26T16:07:20.115Z,90.80
2018-01-26T16:09:47.956Z,90.90
2018-01-26T16:12:15.019Z,90.90
2018-01-26T16:14:42.076Z,90.90
2018-01-26T16:17:09.135Z,90.90
2018-01-26T16:19:36.199Z,90.90
2018-01-26T16:22:03.254Z,90.90
2018-01-26T16:24:30.235Z,91.00
2018-01-26T16:26:57.202Z,91.00
2018-01-26T16:29:25.790Z,91.00
2018-01-26T16:31:52.763Z,91.00
2018-01-26T16:34:19.731Z,91.00
2018-01-26T16:36:47.475Z,91.20
2018-01-26T16:39:14.442Z,91.10
2018-01-26T16:41:41.480Z,91.10
2018-01-26T16:44:08.543Z,91.10
2018-01-26T16:46:35.524Z,91.10
2018-01-26T16:49:02.497Z,91.20
2018-01-26T16:51:29.476Z,91.20
2018-01-26T16:53:57.212Z,91.20
2018-01-26T16:56:24.246Z,91.20
2018-01-26T16:58:51.218Z,91.20
2018-01-26T17:01:18.270Z,91.20
2018-01-26T17:03:45.323Z,91.20
2018-01-26T17:06:12.304Z,91.20
2018-01-26T17:08:39.275Z,91.30
2018-01-26T17:11:06.250Z,91.30
2018-01-26T17:13:34.084Z,91.20
2018-01-26T17:16:01.063Z,91.40
2018-01-26T17:18:28.035Z,91.70
2018-01-26T17:20:55.050Z,91.40
2018-01-26T17:23:22.110Z,91.40
2018-01-26T17:25:49.083Z,91.40
2018-01-26T17:28:16.127Z,91.40
2018-01-26T17:30:43.191Z,91.40
2018-01-26T17:33:11.171Z,91.40
2018-01-26T17:35:38.142Z,91.30
2018-01-26T17:38:05.126Z,91.30
2018-01-26T17:40:32.135Z,91.30
2018-01-26T17:42:59.111Z,91.30
2018-01-26T17:45:26.079Z,91.30
2018-01-26T17:47:53.062Z,91.30
2018-01-26T17:50:20.035Z,91.30
2018-01-26T17:52:47.783Z,91.30
2018-01-26T17:55:14.759Z,91.30
2018-01-26T17:57:41.735Z,91.30
2018-01-26T18:00:09.479Z,91.30
2018-01-26T18:02:36.511Z,91.30
2018-01-26T18:05:03.570Z,91.30
2018-01-26T18:07:30.562Z,91.30
2018-01-26T18:09:57.596Z,91.30
2018-01-26T18:12:24.647Z,91.30
2018-01-26T18:14:51.711Z,91.30
2018-01-26T18:17:18.682Z,91.40
2018-01-26T18:19:45.730Z,91.30
2018-01-26T18:22:12.790Z,91.30
2018-01-26T18:24:39.843Z,91.30
2018-01-26T18:27:06.902Z,91.30
2018-01-26T18:29:33.883Z,91.40
2018-01-26T18:32:00.855Z,91.40
2018-01-26T18:34:27.843Z,91.40
2018-01-26T18:36:55.659Z,91.40
2018-01-26T18:39:23.118Z,91.40
2018-01-26T18:41:50.919Z,91.40
2018-01-26T18:44:17.894Z,91.40
2018-01-26T18:46:44.927Z,91.40
2018-01-26T18:49:11.903Z,91.50
2018-01-26T18:51:38.885Z,91.40
2018-01-26T18:54:05.851Z,91.40
2018-01-26T18:56:33.594Z,91.40
2018-01-26T18:59:00.562Z,91.40
2018-01-26T19:01:27.543Z,91.30
2018-01-26T19:03:55.279Z,91.30
2018-01-26T19:06:22.330Z,91.30
2018-01-26T19:08:49.301Z,91.30
2018-01-26T19:11:17.980Z,91.30
2018-01-26T19:13:44.951Z,91.30
2018-01-26T19:16:11.938Z,91.30
2018-01-26T19:18:38.908Z,91.30
2018-01-26T19:21:05.875Z,91.20
2018-01-26T19:23:33.633Z,91.20
2018-01-26T19:26:00.658Z,91.20
2018-01-26T19:28:27.639Z,91.30
2018-01-26T19:30:54.670Z,91.30
2018-01-26T19:33:21.649Z,91.30
2018-01-26T19:35:48.615Z,91.10
2018-01-26T19:38:15.642Z,91.10
2018-01-26T19:40:42.638Z,91.10
2018-01-26T19:43:09.619Z,91.20
2018-01-26T19:45:37.458Z,91.10
2018-01-26T19:48:04.431Z,91.10
2018-01-26T19:50:31.455Z,91.00
2018-01-26T19:52:58.442Z,90.90
2018-01-26T19:55:25.480Z,90.90
2018-01-26T19:57:52.544Z,90.80
2018-01-26T20:00:19.598Z,90.80
2018-01-26T20:02:46.663Z,90.80
2018-01-26T20:05:25.582Z,90.80
2018-01-26T20:07:54.395Z,90.80
2018-01-26T20:10:21.366Z,90.80
2018-01-26T20:12:54.056Z,90.80
2018-01-26T20:15:21.127Z,90.80
2018-01-26T20:17:48.095Z,90.80
2018-01-26T20:20:15.153Z,90.80
2018-01-26T20:22:42.118Z,90.70
2018-01-26T20:25:09.154Z,90.80
2018-01-26T20:27:36.207Z,90.80
2018-01-26T20:30:03.187Z,90.80
2018-01-26T20:32:30.155Z,90.60
2018-01-26T20:34:57.135Z,90.60
2018-01-26T20:37:24.871Z,90.60
2018-01-26T20:39:51.862Z,90.60
2018-01-26T20:42:18.827Z,90.60
2018-01-26T20:44:46.576Z,90.60
2018-01-26T20:47:13.549Z,90.60
2018-01-26T20:49:40.534Z,90.60
2018-01-26T20:52:07.527Z,90.60
2018-01-26T20:54:34.586Z,90.70
2018-01-26T20:57:01.750Z,90.70
2018-01-26T20:59:28.811Z,90.60
2018-01-26T21:01:55.786Z,90.70
2018-01-26T21:04:22.755Z,90.70
2018-01-26T21:06:49.735Z,90.70
2018-01-26T21:09:17.563Z,90.60
2018-01-26T21:11:44.619Z,90.60
2018-01-26T21:14:11.591Z,90.50
2018-01-26T21:16:38.566Z,90.50
2018-01-26T21:19:05.553Z,90.60
2018-01-26T21:21:33.387Z,90.70
2018-01-26T21:24:00.439Z,90.60
2018-01-26T21:26:27.414Z,90.70
2018-01-26T21:28:54.455Z,90.60
2018-01-26T21:31:21.435Z,90.50
2018-01-26T21:33:48.416Z,90.50
2018-01-26T21:36:15.382Z,90.50
2018-01-26T21:38:43.207Z,90.70
2018-01-26T21:41:10.267Z,90.30
2018-01-26T21:43:37.331Z,90.40
2018-01-26T21:46:04.386Z,90.50
2018-01-26T21:48:31.367Z,90.50
2018-01-26T21:50:58.341Z,90.60
2018-01-26T21:53:26.890Z,90.70
2018-01-26T21:55:53.863Z,90.70
2018-01-26T21:58:20.918Z,90.70
2018-01-26T22:00:47.979Z,90.80
2018-01-26T22:03:14.959Z,91.00
2018-01-26T22:05:41.931Z,90.90
2018-01-26T22:08:08.907Z,90.80
2018-01-26T22:10:36.643Z,90.60
2018-01-26T22:13:03.627Z,90.60
2018-01-26T22:15:30.599Z,90.50
2018-01-26T22:17:59.091Z,90.80
2018-01-26T22:20:26.831Z,90.50
2018-01-26T22:22:53.878Z,90.50
2018-01-26T22:25:20.935Z,90.40
2018-01-26T22:27:47.903Z,90.40
2018-01-26T22:30:14.879Z,90.40
2018-01-26T22:32:41.851Z,90.50
2018-01-26T22:35:08.826Z,90.50
2018-01-26T22:37:36.646Z,90.70
2018-01-26T22:40:03.691Z,90.70
2018-01-26T22:42:30.663Z,90.70
2018-01-26T22:44:57.723Z,90.70
2018-01-26T22:47:26.327Z,90.70
2018-01-26T22:49:53.378Z,90.80
2018-01-26T22:52:20.351Z,90.70
2018-01-26T22:54:47.335Z,90.70
2018-01-26T22:57:15.071Z,90.80
2018-01-26T22:59:42.139Z,90.80
2018-01-26T23:02:09.119Z,90.80
2018-01-26T23:04:36.092Z,90.90
2018-01-26T23:07:03.092Z,90.90
2018-01-26T23:09:30.063Z,90.90
2018-01-26T23:11:57.126Z,90.90
2018-01-26T23:14:24.195Z,90.90
2018-01-26T23:16:51.175Z,90.80
2018-01-26T23:19:18.162Z,90.80
2018-01-26T23:21:45.906Z,90.90
2018-01-26T23:24:12.884Z,90.90
2018-01-26T23:26:39.859Z,90.80
2018-01-26T23:29:07.678Z,90.80
2018-01-26T23:31:34.650Z,90.80
2018-01-26T23:34:01.640Z,90.80
2018-01-26T23:36:28.611Z,90.80
2018-01-26T23:38:56.432Z,90.90
2018-01-26T23:41:23.398Z,90.80
2018-01-26T23:43:50.459Z,90.70
2018-01-26T23:46:17.431Z,90.80
2018-01-26T23:48:44.407Z,90.80
2018-01-26T23:51:11.427Z,90.80
2018-01-26T23:53:38.487Z,90.60
2018-01-26T23:56:05.480Z,90.70
2018-01-26T23:58:32.643Z,90.60
